sensor_id;sensor_type;location;lat;lon;timestamp;pressure;altitude;pressure_sealevel;temperature;humidity
61037;BME280;57313;47.040;15.498;2022-07-06T00:01:48;97153.84;;;16.05;100.00
61037;BME280;57313;47.040;15.498;2022-07-06T00:04:16;97152.16;;;16.04;100.00
61037;BME280;57313;47.040;15.498;2022-07-06T00:06:45;97156.72;;;16.02;100.00
61037;BME280;57313;47.040;15.498;2022-07-06T00:09:13;97153.13;;;16.03;100.00
61037;BME280;57313;47.040;15.498;2022-07-06T00:11:40;97165.16;;;16.06;100.00
61037;BME280;57313;47.040;15.498;2022-07-06T00:14:08;97153.50;;;15.98;100.00
61037;BME280;57313;47.040;15.498;2022-07-06T00:16:38;97158.88;;;15.97;100.00
61037;BME280;57313;47.040;15.498;2022-07-06T00:19:06;97158.97;;;16.07;100.00
61037;BME280;57313;47.040;15.498;2022-07-06T00:21:33;97159.78;;;16.07;100.00
61037;BME280;57313;47.040;15.498;2022-07-06T00:24:00;97156.84;;;16.01;100.00
61037;BME280;57313;47.040;15.498;2022-07-06T00:26:27;97159.75;;;15.97;100.00
61037;BME280;57313;47.040;15.498;2022-07-06T00:28:55;97153.63;;;15.97;100.00
61037;BME280;57313;47.040;15.498;2022-07-06T00:31:22;97155.56;;;15.95;100.00
61037;BME280;57313;47.040;15.498;2022-07-06T00:33:52;97168.00;;;15.93;100.00
61037;BME280;57313;47.040;15.498;2022-07-06T00:36:20;97165.78;;;15.88;100.00
61037;BME280;57313;47.040;15.498;2022-07-06T00:38:48;97168.91;;;15.82;100.00
61037;BME280;57313;47.040;15.498;2022-07-06T00:41:16;97159.41;;;15.70;100.00
61037;BME280;57313;47.040;15.498;2022-07-06T00:43:51;97157.75;;;15.69;100.00
61037;BME280;57313;47.040;15.498;2022-07-06T00:46:19;97162.38;;;15.55;100.00
61037;BME280;57313;47.040;15.498;2022-07-06T00:48:48;97166.88;;;15.53;100.00
61037;BME280;57313;47.040;15.498;2022-07-06T00:51:17;97177.25;;;15.55;100.00
61037;BME280;57313;47.040;15.498;2022-07-06T00:53:46;97180.41;;;15.49;100.00
61037;BME280;57313;47.040;15.498;2022-07-06T00:56:14;97185.19;;;15.43;100.00
61037;BME280;57313;47.040;15.498;2022-07-06T00:58:42;97181.28;;;15.38;100.00
61037;BME280;57313;47.040;15.498;2022-07-06T01:01:11;97189.28;;;15.36;100.00
61037;BME280;57313;47.040;15.498;2022-07-06T01:03:38;97181.16;;;15.39;100.00
61037;BME280;57313;47.040;15.498;2022-07-06T01:06:05;97183.91;;;15.38;100.00
61037;BME280;57313;47.040;15.498;2022-07-06T01:08:34;97184.53;;;15.30;100.00
61037;BME280;57313;47.040;15.498;2022-07-06T01:11:02;97180.50;;;15.26;100.00
61037;BME280;57313;47.040;15.498;2022-07-06T01:13:30;97185.88;;;15.24;100.00
61037;BME280;57313;47.040;15.498;2022-07-06T01:15:58;97175.75;;;15.20;100.00
61037;BME280;57313;47.040;15.498;2022-07-06T01:18:25;97184.22;;;15.23;100.00
61037;BME280;57313;47.040;15.498;2022-07-06T01:21:07;97184.78;;;15.27;100.00
61037;BME280;57313;47.040;15.498;2022-07-06T01:23:39;97175.25;;;15.26;100.00
61037;BME280;57313;47.040;15.498;2022-07-06T01:26:10;97181.84;;;15.20;100.00
61037;BME280;57313;47.040;15.498;2022-07-06T01:28:37;97178.13;;;15.23;100.00
61037;BME280;57313;47.040;15.498;2022-07-06T01:31:05;97186.50;;;15.17;100.00
61037;BME280;57313;47.040;15.498;2022-07-06T01:33:41;97188.16;;;15.18;100.00
61037;BME280;57313;47.040;15.498;2022-07-06T01:36:11;97198.06;;;15.14;100.00
61037;BME280;57313;47.040;15.498;2022-07-06T01:38:46;97198.06;;;15.14;100.00
61037;BME280;57313;47.040;15.498;2022-07-06T01:41:13;97194.38;;;15.17;100.00
61037;BME280;57313;47.040;15.498;2022-07-06T01:43:40;97186.16;;;15.10;100.00
61037;BME280;57313;47.040;15.498;2022-07-06T01:46:08;97196.28;;;15.15;100.00
61037;BME280;57313;47.040;15.498;2022-07-06T01:48:36;97191.03;;;15.15;100.00
61037;BME280;57313;47.040;15.498;2022-07-06T01:51:04;97189.38;;;15.14;100.00
61037;BME280;57313;47.040;15.498;2022-07-06T01:53:33;97189.50;;;15.12;100.00
61037;BME280;57313;47.040;15.498;2022-07-06T01:56:01;97189.88;;;15.07;100.00
61037;BME280;57313;47.040;15.498;2022-07-06T01:58:29;97192.63;;;15.06;100.00
61037;BME280;57313;47.040;15.498;2022-07-06T02:00:57;97184.44;;;14.99;100.00
61037;BME280;57313;47.040;15.498;2022-07-06T02:03:25;97191.44;;;14.99;100.00
61037;BME280;57313;47.040;15.498;2022-07-06T02:05:53;97185.50;;;14.97;100.00
61037;BME280;57313;47.040;15.498;2022-07-06T02:08:21;97188.94;;;14.97;100.00
61037;BME280;57313;47.040;15.498;2022-07-06T02:10:50;97195.41;;;14.93;100.00
61037;BME280;57313;47.040;15.498;2022-07-06T02:13:18;97197.19;;;14.93;100.00
61037;BME280;57313;47.040;15.498;2022-07-06T02:15:46;97201.84;;;14.89;100.00
61037;BME280;57313;47.040;15.498;2022-07-06T02:18:13;97192.19;;;14.89;100.00
61037;BME280;57313;47.040;15.498;2022-07-06T02:20:41;97206.03;;;14.80;100.00
61037;BME280;57313;47.040;15.498;2022-07-06T02:23:09;97203.88;;;14.74;100.00
61037;BME280;57313;47.040;15.498;2022-07-06T02:25:36;97204.25;;;14.69;100.00
61037;BME280;57313;47.040;15.498;2022-07-06T02:28:06;97201.97;;;14.65;100.00
61037;BME280;57313;47.040;15.498;2022-07-06T02:30:34;97210.81;;;14.64;100.00
61037;BME280;57313;47.040;15.498;2022-07-06T02:33:01;97197.97;;;14.61;100.00
61037;BME280;57313;47.040;15.498;2022-07-06T02:35:29;97203.78;;;14.64;100.00
61037;BME280;57313;47.040;15.498;2022-07-06T02:37:57;97201.03;;;14.54;100.00
61037;BME280;57313;47.040;15.498;2022-07-06T02:40:24;97208.16;;;14.52;100.00
61037;BME280;57313;47.040;15.498;2022-07-06T02:42:51;97207.56;;;14.49;100.00
61037;BME280;57313;47.040;15.498;2022-07-06T02:45:21;97204.97;;;14.38;100.00
61037;BME280;57313;47.040;15.498;2022-07-06T02:47:49;97203.06;;;14.40;100.00
61037;BME280;57313;47.040;15.498;2022-07-06T02:50:16;97207.81;;;14.46;100.00
61037;BME280;57313;47.040;15.498;2022-07-06T02:52:44;97214.00;;;14.45;100.00
61037;BME280;57313;47.040;15.498;2022-07-06T02:55:11;97212.22;;;14.45;100.00
61037;BME280;57313;47.040;15.498;2022-07-06T02:57:39;97206.75;;;14.48;100.00
61037;BME280;57313;47.040;15.498;2022-07-06T03:00:07;97206.38;;;14.42;100.00
61037;BME280;57313;47.040;15.498;2022-07-06T03:02:37;97210.09;;;14.39;100.00
61037;BME280;57313;47.040;15.498;2022-07-06T03:05:06;97197.81;;;14.40;100.00
61037;BME280;57313;47.040;15.498;2022-07-06T03:07:34;97198.41;;;14.43;100.00
61037;BME280;57313;47.040;15.498;2022-07-06T03:10:01;97204.25;;;14.47;100.00
61037;BME280;57313;47.040;15.498;2022-07-06T03:12:29;97206.38;;;14.42;100.00
61037;BME280;57313;47.040;15.498;2022-07-06T03:14:56;97206.16;;;14.33;100.00
61037;BME280;57313;47.040;15.498;2022-07-06T03:17:25;97216.97;;;14.29;100.00
61037;BME280;57313;47.040;15.498;2022-07-06T03:19:54;97210.81;;;14.30;100.00
61037;BME280;57313;47.040;15.498;2022-07-06T03:22:21;97193.75;;;14.24;100.00
61037;BME280;57313;47.040;15.498;2022-07-06T03:24:49;97197.34;;;14.23;100.00
61037;BME280;57313;47.040;15.498;2022-07-06T03:27:17;97212.34;;;14.21;100.00
61037;BME280;57313;47.040;15.498;2022-07-06T03:29:45;97188.63;;;14.23;100.00
61037;BME280;57313;47.040;15.498;2022-07-06T03:32:13;97200.78;;;14.24;100.00
61037;BME280;57313;47.040;15.498;2022-07-06T03:34:40;97206.75;;;14.26;100.00
61037;BME280;57313;47.040;15.498;2022-07-06T03:37:09;97197.59;;;14.20;100.00
61037;BME280;57313;47.040;15.498;2022-07-06T03:39:37;97205.31;;;14.22;100.00
61037;BME280;57313;47.040;15.498;2022-07-06T03:42:04;97204.47;;;14.21;100.00
61037;BME280;57313;47.040;15.498;2022-07-06T03:44:33;97196.75;;;14.19;100.00
61037;BME280;57313;47.040;15.498;2022-07-06T03:47:01;97209.47;;;14.24;100.00
61037;BME280;57313;47.040;15.498;2022-07-06T03:49:29;97208.31;;;14.28;100.00
61037;BME280;57313;47.040;15.498;2022-07-06T03:51:56;97206.63;;;14.39;100.00
61037;BME280;57313;47.040;15.498;2022-07-06T03:54:24;97199.25;;;14.44;100.00
61037;BME280;57313;47.040;15.498;2022-07-06T03:56:52;97202.56;;;14.46;100.00
61037;BME280;57313;47.040;15.498;2022-07-06T03:59:20;97206.63;;;14.50;100.00
61037;BME280;57313;47.040;15.498;2022-07-06T04:01:47;97210.31;;;14.47;100.00
61037;BME280;57313;47.040;15.498;2022-07-06T04:04:15;97198.78;;;14.50;100.00
61037;BME280;57313;47.040;15.498;2022-07-06T04:06:43;97199.13;;;14.57;100.00
61037;BME280;57313;47.040;15.498;2022-07-06T04:09:10;97195.44;;;14.59;100.00
61037;BME280;57313;47.040;15.498;2022-07-06T04:11:40;97197.84;;;14.62;100.00
61037;BME280;57313;47.040;15.498;2022-07-06T04:14:07;97198.41;;;14.66;100.00
61037;BME280;57313;47.040;15.498;2022-07-06T04:16:34;97201.75;;;14.68;100.00
61037;BME280;57313;47.040;15.498;2022-07-06T04:19:02;97199.38;;;14.76;100.00
61037;BME280;57313;47.040;15.498;2022-07-06T04:21:29;97199.72;;;14.83;100.00
61037;BME280;57313;47.040;15.498;2022-07-06T04:23:57;97208.75;;;14.90;100.00
61037;BME280;57313;47.040;15.498;2022-07-06T04:26:25;97204.91;;;14.94;100.00
61037;BME280;57313;47.040;15.498;2022-07-06T04:28:54;97207.06;;;15.00;100.00
61037;BME280;57313;47.040;15.498;2022-07-06T04:31:22;97198.00;;;15.04;100.00
61037;BME280;57313;47.040;15.498;2022-07-06T04:33:50;97197.75;;;15.07;100.00
61037;BME280;57313;47.040;15.498;2022-07-06T04:36:17;97190.44;;;15.11;100.00
61037;BME280;57313;47.040;15.498;2022-07-06T04:38:46;97198.91;;;15.15;100.00
61037;BME280;57313;47.040;15.498;2022-07-06T04:41:13;97203.78;;;15.19;100.00
61037;BME280;57313;47.040;15.498;2022-07-06T04:43:40;97200.78;;;15.24;100.00
61037;BME280;57313;47.040;15.498;2022-07-06T04:46:10;97207.13;;;15.21;100.00
61037;BME280;57313;47.040;15.498;2022-07-06T04:48:37;97205.31;;;15.22;100.00
61037;BME280;57313;47.040;15.498;2022-07-06T04:51:04;97211.38;;;15.22;100.00
61037;BME280;57313;47.040;15.498;2022-07-06T04:53:31;97207.81;;;15.23;100.00
61037;BME280;57313;47.040;15.498;2022-07-06T04:55:59;97210.31;;;15.25;100.00
61037;BME280;57313;47.040;15.498;2022-07-06T04:58:26;97205.19;;;15.23;100.00
61037;BME280;57313;47.040;15.498;2022-07-06T05:00:53;97207.00;;;15.23;100.00
61037;BME280;57313;47.040;15.498;2022-07-06T05:03:23;97207.00;;;15.23;100.00
61037;BME280;57313;47.040;15.498;2022-07-06T05:05:50;97216.38;;;15.25;100.00
61037;BME280;57313;47.040;15.498;2022-07-06T05:08:20;97212.25;;;15.23;100.00
61037;BME280;57313;47.040;15.498;2022-07-06T05:10:48;97214.88;;;15.23;100.00
61037;BME280;57313;47.040;15.498;2022-07-06T05:13:16;97209.63;;;15.23;100.00
61037;BME280;57313;47.040;15.498;2022-07-06T05:15:43;97212.44;;;15.31;100.00
61037;BME280;57313;47.040;15.498;2022-07-06T05:18:11;97204.31;;;15.34;100.00
61037;BME280;57313;47.040;15.498;2022-07-06T05:20:42;97216.69;;;15.43;100.00
61037;BME280;57313;47.040;15.498;2022-07-06T05:23:09;97204.75;;;15.51;100.00
61037;BME280;57313;47.040;15.498;2022-07-06T05:25:36;97212.94;;;15.57;100.00
61037;BME280;57313;47.040;15.498;2022-07-06T05:28:04;97212.19;;;15.67;100.00
61037;BME280;57313;47.040;15.498;2022-07-06T05:30:31;97225.38;;;15.76;100.00
61037;BME280;57313;47.040;15.498;2022-07-06T05:32:59;97216.06;;;15.84;100.00
61037;BME280;57313;47.040;15.498;2022-07-06T05:35:26;97218.03;;;15.91;100.00
61037;BME280;57313;47.040;15.498;2022-07-06T05:38:15;97218.09;;;16.01;100.00
61037;BME280;57313;47.040;15.498;2022-07-06T05:40:43;97215.78;;;16.08;100.00
61037;BME280;57313;47.040;15.498;2022-07-06T05:43:10;97222.06;;;16.17;100.00
61037;BME280;57313;47.040;15.498;2022-07-06T05:45:37;97209.09;;;16.25;100.00
61037;BME280;57313;47.040;15.498;2022-07-06T05:48:05;97203.31;;;16.31;100.00
61037;BME280;57313;47.040;15.498;2022-07-06T05:50:32;97211.38;;;16.39;100.00
61037;BME280;57313;47.040;15.498;2022-07-06T05:53:00;97201.72;;;16.49;100.00
61037;BME280;57313;47.040;15.498;2022-07-06T05:55:39;97203.00;;;16.55;100.00
61037;BME280;57313;47.040;15.498;2022-07-06T05:58:07;97218.25;;;16.61;100.00
61037;BME280;57313;47.040;15.498;2022-07-06T06:00:34;97220.91;;;16.71;100.00
61037;BME280;57313;47.040;15.498;2022-07-06T06:03:02;97215.91;;;16.78;100.00
61037;BME280;57313;47.040;15.498;2022-07-06T06:05:29;97217.06;;;16.85;100.00
61037;BME280;57313;47.040;15.498;2022-07-06T06:07:56;97221.69;;;16.93;100.00
61037;BME280;57313;47.040;15.498;2022-07-06T06:10:24;97214.06;;;16.99;100.00
61037;BME280;57313;47.040;15.498;2022-07-06T06:12:53;97213.53;;;17.05;100.00
61037;BME280;57313;47.040;15.498;2022-07-06T06:15:20;97209.13;;;17.16;100.00
61037;BME280;57313;47.040;15.498;2022-07-06T06:17:47;97215.50;;;17.23;100.00
61037;BME280;57313;47.040;15.498;2022-07-06T06:20:16;97218.28;;;17.31;100.00
61037;BME280;57313;47.040;15.498;2022-07-06T06:22:48;97205.38;;;17.38;100.00
61037;BME280;57313;47.040;15.498;2022-07-06T06:25:18;97200.25;;;17.46;100.00
61037;BME280;57313;47.040;15.498;2022-07-06T06:27:46;97208.44;;;17.53;100.00
61037;BME280;57313;47.040;15.498;2022-07-06T06:30:15;97219.09;;;17.61;100.00
61037;BME280;57313;47.040;15.498;2022-07-06T06:32:43;97209.69;;;17.68;100.00
61037;BME280;57313;47.040;15.498;2022-07-06T06:35:10;97220.88;;;17.80;100.00
61037;BME280;57313;47.040;15.498;2022-07-06T06:37:38;97214.38;;;17.84;100.00
61037;BME280;57313;47.040;15.498;2022-07-06T06:40:07;97217.31;;;17.91;100.00
61037;BME280;57313;47.040;15.498;2022-07-06T06:42:36;97219.09;;;18.00;100.00
61037;BME280;57313;47.040;15.498;2022-07-06T06:45:04;97210.47;;;18.08;100.00
61037;BME280;57313;47.040;15.498;2022-07-06T06:47:34;97206.84;;;18.19;100.00
61037;BME280;57313;47.040;15.498;2022-07-06T06:50:02;97212.06;;;18.28;100.00
61037;BME280;57313;47.040;15.498;2022-07-06T06:52:30;97209.44;;;18.38;100.00
61037;BME280;57313;47.040;15.498;2022-07-06T06:55:07;97199.94;;;18.45;100.00
61037;BME280;57313;47.040;15.498;2022-07-06T06:57:35;97198.25;;;18.54;100.00
61037;BME280;57313;47.040;15.498;2022-07-06T07:00:04;97206.09;;;18.64;100.00
61037;BME280;57313;47.040;15.498;2022-07-06T07:02:32;97203.44;;;18.74;100.00
61037;BME280;57313;47.040;15.498;2022-07-06T07:05:02;97203.28;;;18.75;100.00
61037;BME280;57313;47.040;15.498;2022-07-06T07:07:30;97202.84;;;18.80;100.00
61037;BME280;57313;47.040;15.498;2022-07-06T07:09:57;97209.06;;;18.89;100.00
61037;BME280;57313;47.040;15.498;2022-07-06T07:12:25;97206.50;;;18.97;100.00
61037;BME280;57313;47.040;15.498;2022-07-06T07:14:52;97208.09;;;19.08;100.00
61037;BME280;57313;47.040;15.498;2022-07-06T07:17:20;97214.97;;;19.18;100.00
61037;BME280;57313;47.040;15.498;2022-07-06T07:19:47;97217.59;;;19.28;100.00
61037;BME280;57313;47.040;15.498;2022-07-06T07:22:16;97210.56;;;19.37;100.00
61037;BME280;57313;47.040;15.498;2022-07-06T07:24:44;97208.00;;;19.45;100.00
61037;BME280;57313;47.040;15.498;2022-07-06T07:27:11;97213.88;;;19.57;100.00
61037;BME280;57313;47.040;15.498;2022-07-06T07:29:39;97196.44;;;19.64;99.35
61037;BME280;57313;47.040;15.498;2022-07-06T07:32:07;97197.88;;;19.77;100.00
61037;BME280;57313;47.040;15.498;2022-07-06T07:34:34;97206.53;;;19.87;100.00
61037;BME280;57313;47.040;15.498;2022-07-06T07:37:02;97201.84;;;19.99;99.70
61037;BME280;57313;47.040;15.498;2022-07-06T07:39:33;97217.06;;;20.05;91.74
61037;BME280;57313;47.040;15.498;2022-07-06T07:42:00;97209.88;;;20.15;96.44
61037;BME280;57313;47.040;15.498;2022-07-06T07:44:28;97212.06;;;20.20;87.26
61037;BME280;57313;47.040;15.498;2022-07-06T07:46:56;97199.84;;;20.27;88.63
61037;BME280;57313;47.040;15.498;2022-07-06T07:49:23;97195.44;;;20.36;91.14
61037;BME280;57313;47.040;15.498;2022-07-06T07:51:51;97184.41;;;20.40;90.01
61037;BME280;57313;47.040;15.498;2022-07-06T07:54:19;97201.81;;;20.51;90.47
61037;BME280;57313;47.040;15.498;2022-07-06T07:56:48;97195.03;;;20.57;88.42
61037;BME280;57313;47.040;15.498;2022-07-06T07:59:16;97195.94;;;20.66;89.33
61037;BME280;57313;47.040;15.498;2022-07-06T08:01:43;97208.84;;;20.69;81.40
61037;BME280;57313;47.040;15.498;2022-07-06T08:04:11;97198.94;;;20.71;82.89
61037;BME280;57313;47.040;15.498;2022-07-06T08:06:38;97196.50;;;20.77;83.06
61037;BME280;57313;47.040;15.498;2022-07-06T08:09:06;97195.00;;;20.83;80.19
61037;BME280;57313;47.040;15.498;2022-07-06T08:11:34;97201.81;;;20.94;77.25
61037;BME280;57313;47.040;15.498;2022-07-06T08:14:03;97200.34;;;21.00;76.00
61037;BME280;57313;47.040;15.498;2022-07-06T08:16:31;97189.94;;;21.06;76.45
61037;BME280;57313;47.040;15.498;2022-07-06T08:19:00;97182.31;;;21.11;72.96
61037;BME280;57313;47.040;15.498;2022-07-06T08:21:34;97190.97;;;21.22;65.53
61037;BME280;57313;47.040;15.498;2022-07-06T08:24:02;97184.03;;;21.29;66.00
61037;BME280;57313;47.040;15.498;2022-07-06T08:26:31;97191.81;;;21.39;69.78
61037;BME280;57313;47.040;15.498;2022-07-06T08:28:58;97187.72;;;21.52;83.65
61037;BME280;57313;47.040;15.498;2022-07-06T08:31:29;97195.84;;;21.67;67.65
61037;BME280;57313;47.040;15.498;2022-07-06T08:34:16;97189.88;;;21.82;68.97
61037;BME280;57313;47.040;15.498;2022-07-06T08:36:44;97196.66;;;21.93;65.78
61037;BME280;57313;47.040;15.498;2022-07-06T08:39:12;97188.69;;;22.01;68.40
61037;BME280;57313;47.040;15.498;2022-07-06T08:41:41;97193.97;;;22.09;61.33
61037;BME280;57313;47.040;15.498;2022-07-06T08:44:10;97185.69;;;22.20;56.65
61037;BME280;57313;47.040;15.498;2022-07-06T08:46:40;97192.47;;;22.31;57.59
61037;BME280;57313;47.040;15.498;2022-07-06T08:49:09;97200.88;;;22.43;54.81
61037;BME280;57313;47.040;15.498;2022-07-06T08:51:40;97187.59;;;22.51;53.73
61037;BME280;57313;47.040;15.498;2022-07-06T08:54:08;97190.69;;;22.63;48.28
61037;BME280;57313;47.040;15.498;2022-07-06T08:56:40;97190.81;;;22.70;49.76
61037;BME280;57313;47.040;15.498;2022-07-06T08:59:15;97185.50;;;22.78;48.63
61037;BME280;57313;47.040;15.498;2022-07-06T09:01:45;97195.72;;;22.89;47.41
61037;BME280;57313;47.040;15.498;2022-07-06T09:04:13;97193.69;;;23.00;47.83
61037;BME280;57313;47.040;15.498;2022-07-06T09:06:43;97190.97;;;23.08;45.38
61037;BME280;57313;47.040;15.498;2022-07-06T09:09:18;97193.25;;;23.19;50.19
61037;BME280;57313;47.040;15.498;2022-07-06T09:11:47;97185.97;;;23.21;50.63
61037;BME280;57313;47.040;15.498;2022-07-06T09:14:15;97188.28;;;23.16;47.78
61037;BME280;57313;47.040;15.498;2022-07-06T09:16:45;97188.63;;;23.21;46.83
61037;BME280;57313;47.040;15.498;2022-07-06T09:19:14;97195.16;;;23.34;49.50
61037;BME280;57313;47.040;15.498;2022-07-06T09:21:44;97202.72;;;23.45;50.20
61037;BME280;57313;47.040;15.498;2022-07-06T09:24:12;97193.88;;;23.53;48.89
61037;BME280;57313;47.040;15.498;2022-07-06T09:26:40;97200.09;;;23.60;48.09
61037;BME280;57313;47.040;15.498;2022-07-06T09:29:10;97194.94;;;23.66;42.43
61037;BME280;57313;47.040;15.498;2022-07-06T09:31:37;97201.69;;;23.69;44.15
61037;BME280;57313;47.040;15.498;2022-07-06T09:34:08;97193.53;;;23.71;43.62
61037;BME280;57313;47.040;15.498;2022-07-06T09:36:41;97197.16;;;23.78;45.49
61037;BME280;57313;47.040;15.498;2022-07-06T09:39:16;97189.13;;;23.86;44.78
61037;BME280;57313;47.040;15.498;2022-07-06T09:41:44;97179.88;;;23.97;43.66
61037;BME280;57313;47.040;15.498;2022-07-06T09:44:12;97176.50;;;24.03;46.78
61037;BME280;57313;47.040;15.498;2022-07-06T09:46:41;97192.38;;;24.11;43.84
61037;BME280;57313;47.040;15.498;2022-07-06T09:49:11;97195.88;;;24.12;42.20
61037;BME280;57313;47.040;15.498;2022-07-06T09:51:39;97190.00;;;24.16;43.79
61037;BME280;57313;47.040;15.498;2022-07-06T09:54:08;97188.25;;;24.24;43.53
61037;BME280;57313;47.040;15.498;2022-07-06T09:56:36;97192.84;;;24.30;46.38
61037;BME280;57313;47.040;15.498;2022-07-06T09:59:07;97200.94;;;24.36;44.41
61037;BME280;57313;47.040;15.498;2022-07-06T10:01:37;97193.66;;;24.45;40.77
61037;BME280;57313;47.040;15.498;2022-07-06T10:04:06;97197.56;;;24.43;41.33
61037;BME280;57313;47.040;15.498;2022-07-06T10:06:36;97193.84;;;24.44;41.82
61037;BME280;57313;47.040;15.498;2022-07-06T10:09:07;97184.13;;;24.51;41.75
61037;BME280;57313;47.040;15.498;2022-07-06T10:11:40;97200.75;;;24.53;39.66
61037;BME280;57313;47.040;15.498;2022-07-06T10:14:10;97204.72;;;24.57;41.06
61037;BME280;57313;47.040;15.498;2022-07-06T10:16:41;97193.97;;;24.65;39.05
61037;BME280;57313;47.040;15.498;2022-07-06T10:19:09;97188.66;;;24.65;40.08
61037;BME280;57313;47.040;15.498;2022-07-06T10:21:39;97182.59;;;24.71;42.77
61037;BME280;57313;47.040;15.498;2022-07-06T10:24:08;97192.03;;;24.74;44.89
61037;BME280;57313;47.040;15.498;2022-07-06T10:26:37;97198.56;;;24.71;39.94
61037;BME280;57313;47.040;15.498;2022-07-06T10:29:06;97199.41;;;24.72;39.25
61037;BME280;57313;47.040;15.498;2022-07-06T10:31:36;97185.53;;;24.77;41.01
61037;BME280;57313;47.040;15.498;2022-07-06T10:34:08;97184.78;;;24.83;40.75
61037;BME280;57313;47.040;15.498;2022-07-06T10:36:41;97187.53;;;24.89;40.33
61037;BME280;57313;47.040;15.498;2022-07-06T10:39:10;97189.63;;;24.94;37.02
61037;BME280;57313;47.040;15.498;2022-07-06T10:41:38;97184.94;;;24.96;38.06
61037;BME280;57313;47.040;15.498;2022-07-06T10:44:26;97178.47;;;25.05;40.40
61037;BME280;57313;47.040;15.498;2022-07-06T10:46:55;97175.25;;;25.10;36.69
61037;BME280;57313;47.040;15.498;2022-07-06T10:49:25;97181.00;;;25.14;37.72
61037;BME280;57313;47.040;15.498;2022-07-06T10:52:17;97178.25;;;25.22;39.79
61037;BME280;57313;47.040;15.498;2022-07-06T10:54:46;97182.16;;;25.26;35.19
61037;BME280;57313;47.040;15.498;2022-07-06T10:57:14;97184.47;;;25.29;37.97
61037;BME280;57313;47.040;15.498;2022-07-06T11:00:00;97179.44;;;25.34;37.80
61037;BME280;57313;47.040;15.498;2022-07-06T11:02:37;97173.44;;;25.32;35.16
61037;BME280;57313;47.040;15.498;2022-07-06T11:05:10;97172.69;;;25.38;39.23
61037;BME280;57313;47.040;15.498;2022-07-06T11:07:50;97173.16;;;25.42;39.30
61037;BME280;57313;47.040;15.498;2022-07-06T11:10:17;97161.25;;;25.44;37.58
61037;BME280;57313;47.040;15.498;2022-07-06T11:12:45;97162.53;;;25.49;37.11
61037;BME280;57313;47.040;15.498;2022-07-06T11:15:48;97169.81;;;25.40;36.62
61037;BME280;57313;47.040;15.498;2022-07-06T11:18:19;97180.50;;;25.40;37.97
61037;BME280;57313;47.040;15.498;2022-07-06T11:21:17;97166.59;;;25.44;38.65
61037;BME280;57313;47.040;15.498;2022-07-06T11:23:48;97166.69;;;25.51;34.45
61037;BME280;57313;47.040;15.498;2022-07-06T11:26:17;97152.34;;;25.59;36.00
61037;BME280;57313;47.040;15.498;2022-07-06T11:28:47;97155.91;;;25.66;35.46
61037;BME280;57313;47.040;15.498;2022-07-06T11:31:15;97166.00;;;25.71;37.95
61037;BME280;57313;47.040;15.498;2022-07-06T11:33:46;97164.22;;;25.78;36.87
61037;BME280;57313;47.040;15.498;2022-07-06T11:36:15;97161.78;;;25.83;37.36
61037;BME280;57313;47.040;15.498;2022-07-06T11:38:44;97162.88;;;25.89;36.31
61037;BME280;57313;47.040;15.498;2022-07-06T11:41:16;97154.16;;;26.02;38.82
61037;BME280;57313;47.040;15.498;2022-07-06T11:43:46;97156.47;;;26.11;39.24
61037;BME280;57313;47.040;15.498;2022-07-06T11:46:22;97150.16;;;26.19;34.29
61037;BME280;57313;47.040;15.498;2022-07-06T11:48:51;97140.72;;;26.17;36.92
61037;BME280;57313;47.040;15.498;2022-07-06T11:51:20;97142.16;;;26.19;36.72
61037;BME280;57313;47.040;15.498;2022-07-06T11:53:49;97141.16;;;26.27;35.51
61037;BME280;57313;47.040;15.498;2022-07-06T11:56:24;97137.94;;;26.38;37.21
61037;BME280;57313;47.040;15.498;2022-07-06T11:58:52;97131.19;;;26.42;35.26
61037;BME280;57313;47.040;15.498;2022-07-06T12:01:21;97137.41;;;26.49;35.36
61037;BME280;57313;47.040;15.498;2022-07-06T12:03:50;97129.63;;;26.61;36.72
61037;BME280;57313;47.040;15.498;2022-07-06T12:06:20;97141.59;;;26.65;36.18
61037;BME280;57313;47.040;15.498;2022-07-06T12:08:49;97139.50;;;26.61;33.82
61037;BME280;57313;47.040;15.498;2022-07-06T12:11:19;97126.38;;;26.66;35.56
61037;BME280;57313;47.040;15.498;2022-07-06T12:13:50;97127.44;;;26.72;37.86
61037;BME280;57313;47.040;15.498;2022-07-06T12:16:19;97120.50;;;26.77;33.71
61037;BME280;57313;47.040;15.498;2022-07-06T12:18:47;97122.34;;;26.83;35.17
61037;BME280;57313;47.040;15.498;2022-07-06T12:21:17;97121.09;;;26.86;31.70
61037;BME280;57313;47.040;15.498;2022-07-06T12:23:46;97137.97;;;26.86;32.16
61037;BME280;57313;47.040;15.498;2022-07-06T12:26:15;97122.56;;;26.89;31.87
61037;BME280;57313;47.040;15.498;2022-07-06T12:28:44;97115.19;;;26.97;34.40
61037;BME280;57313;47.040;15.498;2022-07-06T12:31:31;97120.75;;;27.02;29.87
61037;BME280;57313;47.040;15.498;2022-07-06T12:33:59;97119.13;;;27.08;33.06
61037;BME280;57313;47.040;15.498;2022-07-06T12:36:27;97102.66;;;27.11;31.82
61037;BME280;57313;47.040;15.498;2022-07-06T12:38:55;97111.13;;;27.15;32.73
61037;BME280;57313;47.040;15.498;2022-07-06T12:41:30;97116.66;;;27.20;31.58
61037;BME280;57313;47.040;15.498;2022-07-06T12:44:08;97116.66;;;27.27;34.91
61037;BME280;57313;47.040;15.498;2022-07-06T12:46:40;97103.28;;;27.27;32.90
61037;BME280;57313;47.040;15.498;2022-07-06T12:49:15;97116.25;;;27.30;32.56
61037;BME280;57313;47.040;15.498;2022-07-06T12:51:57;97103.56;;;27.32;32.58
61037;BME280;57313;47.040;15.498;2022-07-06T12:54:26;97102.31;;;27.41;34.44